Tijucas Do Sul, Brazil
Current Conditions -  °F | °C
As of 5:00 PM on Thursday 30 Oct 2014 (Local Time) from SBCT Reporting Station
Few Clouds Few Clouds  
Wind Chill: 88°   Ceiling: Unl
Heat Index: 88°   Visibility: 6mi
Dew Point: 45°   Wind: 3mph
Humidity: 22%   Direction: 40°NE
Pressure: 29.85"   Gusts: NA
Location:  25.93°S, 49.18°W
Report Text: SBCT 301900Z 04003KT 9999 FEW035 31/07 Q1011
Loading
Personal Weather Stations






























Interactive Weather Map New forecast layout! Learn more

10-Day Weather Forecast

Advertisements
Track Severe Weather on mobile